Time;durP1;ratioP1;P1;durP2;ratioP2;P2;SDS_P1;SDS_P2;PMS_P1;PMS_P2;Temp;Humidity;BMP_temperature;BMP_pressure;BME280_temperature;BME280_humidity;BME280_pressure;Samples;Min_cycle;Max_cycle;Signal;HPM_P1;HPM_P2
2021/11/09 00:00:05;;;;;;;7.93;6.85;;;8.80;73.90;;;;;;4955382;28;20050;-78
2021/11/09 00:02:31;;;;;;;6.00;5.65;;;8.80;73.80;;;;;;4972365;28;20039;-78
2021/11/09 00:04:59;;;;;;;8.65;5.55;;;8.80;73.80;;;;;;4954153;28;20043;-78
2021/11/09 00:07:33;;;;;;;6.30;5.82;;;8.70;73.90;;;;;;4970616;28;20038;-78
2021/11/09 00:10:07;;;;;;;6.28;5.88;;;8.70;73.80;;;;;;4960973;28;20431;-78
2021/11/09 00:12:38;;;;;;;6.78;6.18;;;8.70;73.90;;;;;;4971454;28;20484;-78
2021/11/09 00:15:07;;;;;;;6.38;5.93;;;8.70;73.90;;;;;;4972076;28;20031;-78
2021/11/09 00:17:34;;;;;;;5.80;5.35;;;8.70;74.00;;;;;;4971850;28;20042;-78
2021/11/09 00:20:00;;;;;;;7.18;6.55;;;8.60;73.90;;;;;;4970927;28;20363;-78
2021/11/09 00:22:27;;;;;;;6.25;5.85;;;8.60;73.90;;;;;;4954967;28;20047;-78
2021/11/09 00:24:53;;;;;;;6.82;6.22;;;8.60;74.00;;;;;;4968227;28;20043;-78
2021/11/09 00:27:20;;;;;;;7.25;6.45;;;8.60;74.10;;;;;;4973220;28;20053;-78
2021/11/09 00:29:46;;;;;;;7.80;5.72;;;8.60;74.10;;;;;;4971179;28;20069;-78
2021/11/09 00:32:12;;;;;;;6.38;5.78;;;8.50;74.00;;;;;;4968920;28;20488;-78
2021/11/09 00:34:39;;;;;;;6.78;6.18;;;8.50;74.10;;;;;;4981186;28;20031;-78
2021/11/09 00:37:05;;;;;;;5.95;5.57;;;8.50;74.10;;;;;;4987584;28;20050;-78
2021/11/09 00:39:32;;;;;;;5.35;5.05;;;8.50;74.10;;;;;;4971546;28;20027;-78
2021/11/09 00:41:58;;;;;;;5.70;5.40;;;8.40;74.00;;;;;;4954737;28;20043;-78
2021/11/09 00:44:24;;;;;;;6.40;5.90;;;8.40;74.00;;;;;;4968898;28;20045;-78
2021/11/09 00:46:51;;;;;;;4.60;4.38;;;8.40;74.10;;;;;;4974156;28;20058;-78
2021/11/09 00:49:17;;;;;;;5.80;4.93;;;8.40;74.00;;;;;;4982215;28;20399;-78
2021/11/09 00:51:46;;;;;;;4.93;4.72;;;8.40;74.00;;;;;;4973990;28;20062;-78
2021/11/09 00:54:12;;;;;;;4.95;4.65;;;8.40;74.10;;;;;;4974351;28;20027;-78
2021/11/09 00:56:38;;;;;;;5.72;5.32;;;8.40;74.10;;;;;;4956934;28;20045;-78
2021/11/09 00:59:05;;;;;;;5.60;5.30;;;8.30;74.10;;;;;;4974302;28;20043;-78
2021/11/09 01:01:32;;;;;;;6.55;5.75;;;8.30;74.10;;;;;;4960197;28;20051;-78
2021/11/09 01:03:58;;;;;;;5.75;5.32;;;8.30;74.20;;;;;;4972741;28;20066;-78
2021/11/09 01:06:24;;;;;;;6.15;5.72;;;8.30;74.20;;;;;;4972414;28;20055;-78
2021/11/09 01:08:50;;;;;;;5.25;4.95;;;8.30;74.20;;;;;;4973714;28;20027;-78
2021/11/09 01:11:17;;;;;;;5.15;4.85;;;8.30;74.20;;;;;;4982996;28;20034;-78
2021/11/09 01:13:43;;;;;;;5.47;5.15;;;8.30;74.10;;;;;;4984927;28;20042;-78
2021/11/09 01:16:09;;;;;;;5.35;5.03;;;8.30;74.20;;;;;;4974931;28;20035;-78
2021/11/09 01:18:38;;;;;;;6.20;5.68;;;8.30;74.20;;;;;;4974612;28;20050;-78
2021/11/09 01:21:05;;;;;;;5.40;5.05;;;8.30;74.20;;;;;;4954495;28;20055;-78
2021/11/09 01:23:31;;;;;;;6.13;5.65;;;8.20;74.20;;;;;;4974960;28;20081;-78
2021/11/09 01:25:58;;;;;;;5.55;5.20;;;8.20;74.20;;;;;;4974293;28;20531;-78
2021/11/09 01:28:24;;;;;;;5.03;4.72;;;8.20;74.20;;;;;;4972930;28;20042;-78
2021/11/09 01:30:50;;;;;;;5.45;5.15;;;8.20;74.20;;;;;;4961231;28;20031;-78
2021/11/09 01:33:16;;;;;;;6.28;5.00;;;8.20;74.30;;;;;;4973269;28;20039;-78
2021/11/09 01:35:42;;;;;;;5.43;5.13;;;8.10;74.20;;;;;;4969405;28;20472;-78
2021/11/09 01:38:09;;;;;;;5.80;5.50;;;8.10;74.20;;;;;;4954027;28;20485;-78
2021/11/09 01:40:36;;;;;;;5.97;5.55;;;8.10;74.20;;;;;;4973337;28;20035;-78
2021/11/09 01:43:02;;;;;;;5.82;5.43;;;8.00;74.20;;;;;;4974174;28;20061;-78
2021/11/09 01:45:29;;;;;;;5.45;5.15;;;8.00;74.20;;;;;;4978970;28;20050;-78
2021/11/09 01:47:55;;;;;;;6.35;5.95;;;8.00;74.20;;;;;;4954850;28;20444;-78
2021/11/09 01:50:27;;;;;;;5.25;4.95;;;8.00;74.20;;;;;;4969719;28;20038;-78
2021/11/09 01:52:53;;;;;;;4.90;4.70;;;8.00;74.30;;;;;;4969384;28;20031;-78
2021/11/09 01:55:20;;;;;;;6.97;6.32;;;8.00;74.30;;;;;;4974072;28;20539;-78
2021/11/09 01:57:46;;;;;;;5.85;5.45;;;7.90;74.20;;;;;;4973538;28;20085;-78
2021/11/09 02:00:17;;;;;;;6.22;5.68;;;7.90;74.30;;;;;;4972652;28;20492;-78
2021/11/09 02:02:43;;;;;;;5.78;5.15;;;7.90;74.30;;;;;;4967417;28;20033;-78
2021/11/09 02:05:09;;;;;;;4.70;4.45;;;7.80;74.20;;;;;;4972901;28;20038;-78
2021/11/09 02:07:41;;;;;;;5.88;5.47;;;7.80;74.20;;;;;;4971047;28;20046;-78
2021/11/09 02:10:07;;;;;;;5.60;5.20;;;7.80;74.30;;;;;;4973265;28;20475;-78
2021/11/09 02:12:34;;;;;;;5.65;5.13;;;7.80;74.20;;;;;;4973339;28;20491;-78
2021/11/09 02:15:00;;;;;;;4.90;4.60;;;7.80;74.20;;;;;;4973225;28;20038;-78
2021/11/09 02:17:26;;;;;;;4.60;4.32;;;7.70;74.30;;;;;;4972871;28;20400;-78
2021/11/09 02:19:52;;;;;;;5.88;5.53;;;7.70;74.30;;;;;;4970518;28;20023;-78
2021/11/09 02:22:18;;;;;;;5.63;5.32;;;7.70;74.30;;;;;;4974179;28;20039;-78
2021/11/09 02:24:44;;;;;;;5.70;4.95;;;7.70;74.40;;;;;;4974040;28;20087;-78
2021/11/09 02:27:11;;;;;;;6.10;5.65;;;7.70;74.40;;;;;;4973179;28;20039;-78
2021/11/09 02:29:37;;;;;;;5.10;4.75;;;7.60;74.40;;;;;;4954904;28;20043;-78
2021/11/09 02:32:06;;;;;;;4.88;4.68;;;7.60;74.40;;;;;;4971884;28;20038;-78
2021/11/09 02:34:32;;;;;;;5.03;4.63;;;7.60;74.40;;;;;;4982765;28;20042;-78
2021/11/09 02:36:58;;;;;;;5.15;4.88;;;7.60;74.50;;;;;;4971471;28;20035;-78
2021/11/09 02:39:24;;;;;;;5.00;4.70;;;7.60;74.50;;;;;;4972339;28;20027;-78
2021/11/09 02:41:51;;;;;;;6.60;6.20;;;7.50;74.40;;;;;;4961186;28;20027;-78
2021/11/09 02:44:20;;;;;;;5.18;4.88;;;7.50;74.40;;;;;;4973446;28;20035;-78
2021/11/09 02:46:51;;;;;;;4.40;4.20;;;7.50;74.50;;;;;;4971054;28;20054;-78
2021/11/09 02:51:47;;;;;;;4.88;4.57;;;7.50;74.40;;;;;;4977677;28;20302;-78
2021/11/09 02:56:54;;;;;;;6.67;5.37;;;7.40;74.40;;;;;;4973115;28;20030;-78
2021/11/09 03:01:58;;;;;;;5.13;4.83;;;7.40;74.40;;;;;;4971160;28;20027;-78
2021/11/09 03:07:12;;;;;;;4.70;4.40;;;7.40;74.40;;;;;;4971789;28;20050;-78
2021/11/09 03:09:54;;;;;;;5.83;5.43;;;7.40;74.40;;;;;;4967458;28;20022;-78
2021/11/09 03:12:21;;;;;;;4.65;4.45;;;7.40;74.50;;;;;;4981315;28;20030;-78
2021/11/09 03:14:47;;;;;;;5.75;5.00;;;7.30;74.50;;;;;;4976407;28;20031;-78
2021/11/09 03:17:20;;;;;;;4.82;4.53;;;7.30;74.50;;;;;;4969174;28;20039;-78
2021/11/09 03:44:21;;;;;;;5.63;5.23;;;7.10;74.50;;;;;;4978268;28;20534;-77
2021/11/09 03:46:56;;;;;;;5.07;4.83;;;7.10;74.50;;;;;;4977568;28;20487;-77
2021/11/09 03:49:24;;;;;;;6.43;5.93;;;7.10;74.50;;;;;;4971701;28;20524;-77
2021/11/09 03:51:51;;;;;;;4.85;4.65;;;7.10;74.50;;;;;;4969794;28;20042;-77
2021/11/09 03:54:19;;;;;;;7.10;6.25;;;7.00;74.60;;;;;;4953094;28;20039;-77
2021/11/09 03:56:51;;;;;;;5.07;4.77;;;7.00;74.50;;;;;;4953247;28;20050;-78
2021/11/09 03:59:36;;;;;;;5.70;5.40;;;7.00;74.50;;;;;;4972793;28;20050;-78
2021/11/09 04:02:30;;;;;;;5.20;4.90;;;7.00;74.50;;;;;;4970676;28;20496;-78
2021/11/09 04:04:52;;;;;;;5.57;5.17;;;7.00;74.60;;;;;;4971977;28;20384;-78
2021/11/09 04:07:34;;;;;;;5.40;5.10;;;7.00;74.50;;;;;;4973115;28;20038;-78
2021/11/09 05:09:29;;;;;;;4.40;4.20;;;6.50;74.90;;;;;;4924724;29;20040;-77
2021/11/09 05:11:55;;;;;;;4.93;4.63;;;6.50;74.80;;;;;;4921121;29;20032;-77
2021/11/09 05:14:21;;;;;;;5.40;5.10;;;6.50;74.80;;;;;;4919099;29;20057;-77
2021/11/09 05:16:47;;;;;;;5.03;4.63;;;6.50;74.80;;;;;;4890232;29;20032;-77
2021/11/09 05:19:14;;;;;;;7.43;5.83;;;6.50;74.90;;;;;;4896244;29;20032;-76
2021/11/09 05:21:40;;;;;;;4.80;4.50;;;6.40;74.80;;;;;;4913414;29;20483;-77
2021/11/09 05:24:07;;;;;;;5.33;4.97;;;6.40;74.80;;;;;;4919528;29;20036;-77
2021/11/09 05:26:34;;;;;;;4.30;4.10;;;6.40;74.80;;;;;;4902379;29;20045;-77
2021/11/09 05:29:00;;;;;;;5.67;5.27;;;6.40;74.80;;;;;;4907167;29;20047;-77
2021/11/09 05:31:26;;;;;;;4.77;4.47;;;6.40;74.80;;;;;;4927871;29;20048;-77
2021/11/09 05:33:56;;;;;;;5.60;5.20;;;6.40;74.80;;;;;;4902177;29;20044;-76
2021/11/09 05:36:22;;;;;;;5.23;4.83;;;6.40;74.90;;;;;;4926236;29;20036;-77
2021/11/09 05:38:56;;;;;;;6.13;5.73;;;6.40;74.80;;;;;;4920583;29;20052;-76
2021/11/09 05:41:24;;;;;;;5.33;5.00;;;6.40;74.80;;;;;;4958096;28;20061;-77
2021/11/09 05:43:50;;;;;;;5.40;5.00;;;6.40;74.80;;;;;;4978167;28;20499;-76
2021/11/09 05:46:16;;;;;;;5.47;5.17;;;6.40;74.80;;;;;;4978686;28;20042;-76
2021/11/09 05:48:42;;;;;;;5.07;4.77;;;6.40;74.80;;;;;;4974643;28;20054;-77
2021/11/09 05:51:09;;;;;;;4.63;4.43;;;6.40;74.80;;;;;;4976458;28;20046;-76
2021/11/09 05:53:35;;;;;;;4.43;4.23;;;6.30;74.80;;;;;;4978534;28;20399;-78
2021/11/09 05:56:02;;;;;;;5.03;4.77;;;6.30;74.80;;;;;;4978094;28;20387;-76
2021/11/09 05:58:28;;;;;;;5.97;5.57;;;6.30;74.70;;;;;;4979357;28;20037;-76
2021/11/09 06:00:55;;;;;;;5.13;4.87;;;6.30;74.70;;;;;;4974326;28;20050;-77
2021/11/09 06:03:23;;;;;;;4.83;4.53;;;6.30;74.80;;;;;;4967571;28;20051;-77
2021/11/09 06:05:53;;;;;;;5.13;4.83;;;6.30;74.80;;;;;;4988952;28;20471;-77
2021/11/09 06:08:19;;;;;;;4.23;4.03;;;6.30;74.80;;;;;;4978727;28;20402;-76
2021/11/09 06:10:45;;;;;;;5.30;5.00;;;6.30;74.80;;;;;;4976846;28;20050;-78
2021/11/09 06:13:12;;;;;;;5.93;5.47;;;6.30;74.80;;;;;;4979033;28;20510;-77
2021/11/09 06:15:38;;;;;;;5.80;5.30;;;6.30;74.70;;;;;;4971349;28;20400;-81
2021/11/09 06:18:04;;;;;;;5.50;5.10;;;6.20;74.70;;;;;;4962096;28;20415;-81
2021/11/09 06:20:31;;;;;;;5.67;5.27;;;6.20;74.80;;;;;;4958390;28;20044;-81
2021/11/09 06:22:57;;;;;;;4.57;4.33;;;6.20;74.80;;;;;;4977416;28;20388;-81
2021/11/09 06:25:24;;;;;;;5.90;5.50;;;6.20;74.80;;;;;;4977236;28;20041;-79
2021/11/09 06:27:53;;;;;;;5.30;4.90;;;6.20;74.90;;;;;;4976072;28;20034;-79
2021/11/09 06:30:20;;;;;;;4.70;4.40;;;6.20;74.90;;;;;;4956728;28;20039;-79
2021/11/09 06:32:46;;;;;;;5.97;5.57;;;6.10;74.80;;;;;;4977438;28;20045;-78
2021/11/09 06:35:12;;;;;;;5.30;4.97;;;6.10;74.80;;;;;;4954231;28;20043;-79
2021/11/09 06:37:38;;;;;;;5.83;5.53;;;6.10;75.20;;;;;;4970137;28;20034;-80
2021/11/09 06:40:06;;;;;;;5.53;5.10;;;6.10;74.90;;;;;;4960395;28;20042;-79
2021/11/09 06:42:32;;;;;;;4.53;4.33;;;6.10;74.90;;;;;;4974480;28;20038;-79
2021/11/09 06:44:58;;;;;;;8.33;5.43;;;6.10;74.90;;;;;;4962784;28;20038;-81
2021/11/09 06:47:24;;;;;;;5.40;5.00;;;6.10;74.90;;;;;;4977152;28;20047;-81
2021/11/09 06:49:51;;;;;;;9.63;4.83;;;6.10;74.90;;;;;;4956250;28;20042;-80
2021/11/09 06:52:17;;;;;;;5.73;5.40;;;6.10;74.90;;;;;;4975869;28;20042;-79
2021/11/09 06:54:44;;;;;;;5.53;5.23;;;6.20;74.90;;;;;;4973733;28;20476;-80
2021/11/09 06:57:10;;;;;;;5.90;5.50;;;6.20;74.80;;;;;;4976510;28;20027;-80
2021/11/09 06:59:37;;;;;;;6.37;5.80;;;6.20;74.80;;;;;;4977186;28;20061;-80
2021/11/09 07:02:04;;;;;;;5.63;5.30;;;6.20;74.70;;;;;;4974336;28;20050;-79
2021/11/09 07:04:30;;;;;;;4.60;4.30;;;6.20;74.70;;;;;;4958637;28;20042;-80
2021/11/09 07:06:56;;;;;;;5.53;5.20;;;6.20;74.80;;;;;;4987736;28;20045;-79
2021/11/09 07:09:23;;;;;;;4.97;4.67;;;6.30;74.70;;;;;;4974019;28;20038;-80
2021/11/09 07:11:49;;;;;;;13.50;7.67;;;6.30;74.70;;;;;;4977284;28;20026;-80
2021/11/09 07:14:16;;;;;;;4.77;4.57;;;6.30;74.60;;;;;;4976403;28;20042;-79
2021/11/09 07:16:44;;;;;;;6.83;6.30;;;6.30;74.60;;;;;;4975756;28;20035;-79
2021/11/09 07:19:12;;;;;;;5.27;4.70;;;6.30;74.60;;;;;;4977502;28;20046;-79
2021/11/09 07:21:38;;;;;;;6.93;5.90;;;6.30;75.00;;;;;;4972103;28;20043;-79
2021/11/09 07:24:04;;;;;;;6.10;4.93;;;6.40;74.50;;;;;;4978043;28;20045;-79
2021/11/09 07:26:30;;;;;;;6.97;5.57;;;6.40;74.50;;;;;;4956679;28;20043;-78
2021/11/09 07:28:57;;;;;;;4.97;4.67;;;6.40;74.50;;;;;;4976538;28;20534;-83
2021/11/09 07:31:25;;;;;;;6.73;6.07;;;6.50;74.50;;;;;;4977519;28;20053;-82
2021/11/09 07:33:51;;;;;;;5.77;5.33;;;6.50;74.50;;;;;;4973988;28;20038;-84
2021/11/09 07:36:17;;;;;;;5.80;5.30;;;6.50;74.50;;;;;;4974270;28;20034;-83
2021/11/09 07:38:44;;;;;;;6.20;5.63;;;6.60;74.50;;;;;;4971771;28;20042;-82
2021/11/09 07:41:10;;;;;;;5.87;5.30;;;6.60;74.40;;;;;;4970430;28;20472;-81
2021/11/09 07:43:36;;;;;;;4.80;4.57;;;6.60;74.40;;;;;;4949366;28;20047;-81
2021/11/09 07:46:03;;;;;;;5.30;5.00;;;6.60;74.30;;;;;;4960804;28;20035;-80
2021/11/09 07:48:29;;;;;;;5.23;4.93;;;6.60;74.30;;;;;;4970099;28;20043;-80
2021/11/09 07:50:55;;;;;;;6.53;6.03;;;6.60;74.30;;;;;;4955374;28;20053;-79
2021/11/09 07:53:22;;;;;;;5.80;5.40;;;6.70;74.40;;;;;;4968340;28;20054;-81
2021/11/09 07:58:41;;;;;;;5.40;5.00;;;6.70;74.40;;;;;;4970642;28;20022;-79
2021/11/09 08:01:09;;;;;;;5.77;4.77;;;6.70;74.30;;;;;;4969457;28;20463;-80
2021/11/09 08:11:45;;;;;;;4.87;4.57;;;6.80;74.10;;;;;;4940065;28;20035;-78
2021/11/09 08:14:11;;;;;;;11.57;6.90;;;6.90;74.20;;;;;;4948870;28;20047;-78
2021/11/09 08:16:38;;;;;;;5.23;4.93;;;6.90;74.10;;;;;;4933028;28;20039;-83
2021/11/09 08:19:04;;;;;;;5.73;5.33;;;6.90;74.10;;;;;;4953256;28;20050;-84
2021/11/09 08:21:34;;;;;;;5.67;5.23;;;7.00;74.20;;;;;;4949668;28;20046;-83
2021/11/09 08:24:00;;;;;;;5.50;5.13;;;7.20;74.00;;;;;;4955846;28;20048;-82
2021/11/09 08:26:26;;;;;;;8.40;4.87;;;7.30;74.00;;;;;;4939194;29;20429;-83
2021/11/09 08:28:53;;;;;;;4.67;4.37;;;7.50;73.80;;;;;;4933468;29;20062;-85
2021/11/09 08:31:22;;;;;;;5.22;4.88;;;7.50;73.60;;;;;;4936548;28;20039;-84
2021/11/09 08:33:49;;;;;;;4.85;4.55;;;7.60;73.60;;;;;;4934260;28;20436;-83
2021/11/09 08:36:21;;;;;;;5.67;5.37;;;7.60;73.50;;;;;;4952539;28;20043;-82
2021/11/09 08:38:48;;;;;;;7.15;5.60;;;7.60;73.70;;;;;;4938669;29;20051;-83
2021/11/09 08:41:14;;;;;;;5.65;5.25;;;7.70;73.70;;;;;;4937980;28;20079;-83
2021/11/09 08:43:45;;;;;;;5.30;5.00;;;7.70;73.80;;;;;;4953877;28;20503;-82
2021/11/09 08:46:20;;;;;;;5.53;5.22;;;7.80;73.80;;;;;;4968365;28;20042;-83
2021/11/09 08:48:49;;;;;;;6.20;5.70;;;7.90;73.70;;;;;;4968731;28;20039;-82
2021/11/09 08:51:16;;;;;;;6.15;5.32;;;8.00;73.50;;;;;;4971134;28;20027;-84
2021/11/09 08:53:53;;;;;;;10.98;5.30;;;8.00;74.30;;;;;;4953065;28;20039;-86
2021/11/09 09:04:11;;;;;;;5.57;5.18;;;8.10;73.50;;;;;;4970137;28;20031;-85
2021/11/09 09:04:29;;;;;;;5.30;4.93;;;8.10;73.50;;;;;;4968682;28;20047;-84
2021/11/09 09:06:56;;;;;;;6.63;6.18;;;8.10;73.60;;;;;;4976594;28;20031;-82
2021/11/09 09:09:22;;;;;;;5.53;5.03;;;8.10;73.60;;;;;;4971536;28;20038;-82
2021/11/09 09:11:49;;;;;;;5.65;5.28;;;8.00;73.70;;;;;;4969912;28;20366;-80
2021/11/09 09:14:17;;;;;;;4.82;4.53;;;8.00;73.90;;;;;;4955265;28;20050;-84
2021/11/09 09:16:46;;;;;;;5.40;5.00;;;8.10;73.90;;;;;;4955086;28;20031;-83
2021/11/09 09:19:16;;;;;;;4.18;3.97;;;8.10;73.80;;;;;;4961820;28;20051;-83
2021/11/09 09:21:50;;;;;;;5.80;5.30;;;8.20;73.90;;;;;;4974457;28;20030;-84
2021/11/09 09:27:19;;;;;;;6.32;5.82;;;8.30;73.60;;;;;;4960852;28;20030;-83
2021/11/09 09:29:50;;;;;;;6.13;5.78;;;8.20;73.50;;;;;;4976349;28;20054;-81
2021/11/09 09:57:07;;;;;;;5.97;5.57;;;8.70;73.30;;;;;;4905050;29;20040;-83
2021/11/09 09:59:35;;;;;;;5.78;5.32;;;8.80;73.30;;;;;;4907828;29;20059;-82
2021/11/09 10:02:08;;;;;;;7.10;5.80;;;8.80;73.20;;;;;;4880435;29;20081;-83
2021/11/09 10:04:36;;;;;;;6.68;6.05;;;8.90;73.30;;;;;;4914615;29;20474;-83
2021/11/09 10:07:04;;;;;;;6.70;6.20;;;9.00;73.20;;;;;;4883241;29;20051;-81
2021/11/09 10:09:31;;;;;;;5.38;5.07;;;9.10;73.20;;;;;;4898883;29;20060;-80
2021/11/09 10:12:12;;;;;;;5.43;5.03;;;9.10;73.30;;;;;;4915245;29;20051;-81
2021/11/09 10:14:38;;;;;;;6.40;5.75;;;9.10;73.30;;;;;;4967338;28;20042;-81
2021/11/09 10:17:22;;;;;;;5.65;5.25;;;9.10;73.30;;;;;;4982558;28;20035;-80
2021/11/09 10:19:48;;;;;;;6.05;5.55;;;9.20;73.40;;;;;;4978016;28;20030;-83
2021/11/09 10:22:23;;;;;;;6.45;5.90;;;9.20;73.30;;;;;;4980675;28;20030;-81
2021/11/09 10:24:54;;;;;;;4.82;4.43;;;9.40;73.40;;;;;;4975714;28;20051;-81
2021/11/09 10:27:20;;;;;;;5.40;5.10;;;9.40;73.20;;;;;;4957673;28;20042;-81
2021/11/09 10:29:46;;;;;;;5.53;5.13;;;9.50;73.20;;;;;;4980086;28;20031;-82
2021/11/09 10:32:15;;;;;;;5.45;4.95;;;9.60;73.20;;;;;;4957214;28;20038;-81
2021/11/09 10:34:41;;;;;;;5.13;4.82;;;9.60;73.10;;;;;;4970985;28;20031;-81
2021/11/09 10:37:27;;;;;;;6.28;5.68;;;9.70;73.10;;;;;;4977659;28;20050;-82
2021/11/09 10:39:56;;;;;;;5.45;5.15;;;9.80;73.10;;;;;;4958163;28;20053;-82
2021/11/09 10:42:24;;;;;;;5.18;4.88;;;10.00;73.00;;;;;;4978858;28;20046;-82
2021/11/09 10:45:10;;;;;;;5.55;5.05;;;10.10;72.80;;;;;;4977210;28;20400;-81
2021/11/09 10:47:50;;;;;;;5.00;4.70;;;10.20;72.70;;;;;;4978505;28;20035;-83
2021/11/09 10:50:29;;;;;;;5.50;5.20;;;10.20;72.70;;;;;;4958294;28;20066;-83
2021/11/09 10:56:54;;;;;;;5.13;4.93;;;10.40;72.70;;;;;;4978918;28;20396;-83
2021/11/09 11:06:26;;;;;;;5.28;4.93;;;10.70;72.50;;;;;;4969975;28;20023;-84
2021/11/09 11:09:12;;;;;;;5.38;5.07;;;10.80;72.40;;;;;;4971086;28;20051;-85
2021/11/09 11:11:44;;;;;;;6.00;5.50;;;10.90;72.30;;;;;;4963481;28;20026;-83
2021/11/09 11:14:15;;;;;;;5.75;5.45;;;10.90;72.10;;;;;;4964074;28;20038;-83
2021/11/09 11:16:47;;;;;;;6.07;5.72;;;11.00;72.10;;;;;;4971618;28;20035;-83
2021/11/09 11:19:23;;;;;;;5.07;4.80;;;11.10;72.10;;;;;;4981804;28;20050;-83
2021/11/09 11:21:49;;;;;;;5.53;5.10;;;11.10;72.10;;;;;;4955084;28;20035;-83
2021/11/09 11:24:16;;;;;;;5.35;5.05;;;11.20;72.00;;;;;;4958027;28;20027;-83
2021/11/09 11:26:43;;;;;;;5.70;5.40;;;11.30;72.00;;;;;;4968466;28;20038;-83
2021/11/09 11:29:09;;;;;;;5.07;4.78;;;11.30;71.90;;;;;;4954459;28;20391;-83
2021/11/09 11:31:35;;;;;;;5.63;5.32;;;11.40;71.90;;;;;;4951594;28;20028;-83
2021/11/09 11:34:01;;;;;;;5.35;4.95;;;11.40;71.90;;;;;;4943038;28;20042;-82
2021/11/09 11:36:28;;;;;;;5.57;5.28;;;11.40;71.90;;;;;;4954373;28;20487;-82
2021/11/09 11:38:56;;;;;;;5.32;5.03;;;11.50;71.80;;;;;;4957533;28;20047;-82
2021/11/09 11:41:23;;;;;;;5.07;4.78;;;11.60;71.70;;;;;;4961365;28;20035;-82
2021/11/09 11:43:50;;;;;;;4.90;4.70;;;11.60;71.60;;;;;;4974608;28;20058;-83
2021/11/09 11:46:31;;;;;;;5.35;4.95;;;11.60;71.50;;;;;;4975025;28;20034;-80
2021/11/09 11:49:15;;;;;;;5.05;4.75;;;11.70;71.60;;;;;;4975672;28;20065;-84
2021/11/09 11:51:44;;;;;;;4.38;4.18;;;11.80;71.50;;;;;;4958462;28;20034;-81
2021/11/09 11:54:17;;;;;;;13.82;5.60;;;11.80;71.30;;;;;;4975480;28;20023;-82
2021/11/09 11:56:46;;;;;;;5.07;4.68;;;11.80;71.30;;;;;;4976754;28;20479;-81
2021/11/09 11:59:24;;;;;;;5.70;5.25;;;11.90;71.30;;;;;;4980593;28;20503;-81
2021/11/09 12:01:54;;;;;;;5.30;4.90;;;11.90;71.20;;;;;;4981596;28;20399;-81
2021/11/09 12:04:37;;;;;;;5.47;5.15;;;12.00;71.20;;;;;;4973954;28;20038;-81
2021/11/09 12:07:03;;;;;;;5.72;4.85;;;12.10;71.20;;;;;;4975556;28;20391;-81
2021/11/09 12:09:32;;;;;;;4.60;4.40;;;12.20;71.10;;;;;;4971677;28;20395;-80
2021/11/09 12:11:59;;;;;;;5.18;4.88;;;12.30;70.90;;;;;;4975751;28;20027;-81
2021/11/09 12:14:25;;;;;;;4.63;4.43;;;12.30;70.70;;;;;;4980081;28;20034;-80
2021/11/09 12:16:55;;;;;;;7.57;4.95;;;12.40;70.60;;;;;;4981615;28;20039;-81
2021/11/09 12:19:40;;;;;;;11.57;5.45;;;12.40;70.70;;;;;;4975272;28;20394;-81
2021/11/09 12:22:35;;;;;;;7.47;5.97;;;12.50;70.70;;;;;;4976288;28;20399;-80
2021/11/09 12:25:01;;;;;;;5.55;5.25;;;12.50;70.60;;;;;;4963845;28;20048;-81
2021/11/09 12:27:46;;;;;;;5.70;5.25;;;12.60;70.60;;;;;;4985477;28;20045;-81
2021/11/09 12:30:35;;;;;;;5.32;4.88;;;12.60;70.50;;;;;;4983766;28;20535;-81
2021/11/09 12:33:05;;;;;;;5.80;5.50;;;12.70;70.40;;;;;;4976013;28;20047;-82
2021/11/09 12:35:34;;;;;;;6.10;5.60;;;12.70;70.30;;;;;;4975353;28;20408;-81
2021/11/09 12:38:01;;;;;;;6.35;5.85;;;12.70;70.40;;;;;;4975474;28;20479;-81
2021/11/09 12:40:31;;;;;;;6.53;6.13;;;12.70;70.40;;;;;;4974488;28;20391;-79
2021/11/09 12:43:18;;;;;;;5.83;5.53;;;12.70;70.40;;;;;;4973631;28;20038;-79
2021/11/09 12:46:03;;;;;;;6.85;6.45;;;12.70;70.40;;;;;;4942994;28;20023;-80
2021/11/09 12:48:37;;;;;;;7.25;5.18;;;12.70;70.40;;;;;;4976367;28;20468;-80
2021/11/09 12:51:06;;;;;;;5.25;4.95;;;12.80;70.30;;;;;;4986457;28;20042;-80
2021/11/09 12:53:35;;;;;;;5.47;5.18;;;12.80;70.20;;;;;;4979936;28;20057;-79
2021/11/09 12:56:09;;;;;;;5.68;5.32;;;12.80;70.00;;;;;;4979957;28;20042;-80
2021/11/09 12:58:59;;;;;;;5.40;5.13;;;12.90;70.10;;;;;;4978002;28;20035;-79
2021/11/09 13:04:03;;;;;;;5.32;5.10;;;12.90;70.00;;;;;;4981163;28;20521;-79
2021/11/09 13:06:42;;;;;;;5.10;4.90;;;13.00;69.90;;;;;;4975349;28;20019;-80
2021/11/09 13:09:16;;;;;;;5.50;5.25;;;13.00;69.80;;;;;;4990272;28;20077;-79
2021/11/09 13:11:43;;;;;;;7.60;5.28;;;13.00;69.60;;;;;;4979477;28;20508;-79
2021/11/09 13:14:10;;;;;;;5.10;4.90;;;13.00;69.50;;;;;;4978282;28;20480;-80
2021/11/09 13:16:41;;;;;;;5.80;5.47;;;12.90;69.50;;;;;;4978357;28;20035;-79
2021/11/09 13:19:07;;;;;;;5.63;5.32;;;12.90;69.60;;;;;;4979104;28;20034;-80
2021/11/09 13:21:34;;;;;;;5.57;5.28;;;13.00;69.60;;;;;;4943082;28;20035;-79
2021/11/09 13:24:01;;;;;;;5.38;5.07;;;13.00;69.50;;;;;;4979228;28;20046;-80
2021/11/09 13:26:27;;;;;;;5.35;5.07;;;13.00;69.50;;;;;;4978319;28;20096;-80
2021/11/09 13:28:53;;;;;;;4.93;4.72;;;13.00;69.40;;;;;;4977751;28;20042;-80
2021/11/09 13:31:19;;;;;;;4.97;4.78;;;13.00;69.30;;;;;;4977938;28;20407;-79
2021/11/09 13:33:47;;;;;;;4.90;4.70;;;13.00;69.20;;;;;;4974586;28;20039;-80
2021/11/09 13:36:16;;;;;;;5.03;4.72;;;13.00;69.20;;;;;;4960465;28;20035;-80
2021/11/09 13:38:42;;;;;;;5.47;5.18;;;13.10;69.20;;;;;;4979364;28;20033;-79
2021/11/09 13:41:15;;;;;;;5.38;5.07;;;13.10;69.20;;;;;;4976608;28;20392;-79
2021/11/09 13:43:45;;;;;;;5.00;4.80;;;13.10;69.20;;;;;;4977333;28;20058;-79
2021/11/09 13:46:13;;;;;;;5.05;4.85;;;13.20;69.10;;;;;;4974293;28;20035;-80
2021/11/09 13:48:42;;;;;;;5.38;5.07;;;13.20;69.10;;;;;;4988567;28;20027;-81
2021/11/09 13:51:13;;;;;;;5.88;5.47;;;13.20;69.10;;;;;;4977941;28;20030;-81
2021/11/09 13:53:42;;;;;;;5.60;5.20;;;13.20;69.10;;;;;;4977602;28;20033;-81
2021/11/09 13:56:13;;;;;;;5.00;4.70;;;13.20;69.10;;;;;;4977777;28;20041;-81
2021/11/09 13:58:40;;;;;;;4.60;4.40;;;13.20;69.10;;;;;;4976854;28;20295;-80
2021/11/09 14:01:09;;;;;;;4.90;4.70;;;13.20;69.10;;;;;;4976685;28;20387;-81
2021/11/09 14:04:03;;;;;;;6.00;5.70;;;13.20;68.90;;;;;;4958807;28;20026;-80
2021/11/09 14:09:12;;;;;;;5.47;5.13;;;13.20;69.00;;;;;;4980639;28;20027;-81
2021/11/09 14:14:38;;;;;;;5.00;4.80;;;13.20;69.10;;;;;;4979018;28;20054;-81
2021/11/09 14:17:04;;;;;;;7.93;5.82;;;13.20;69.20;;;;;;4976421;28;20051;-81
2021/11/09 14:19:34;;;;;;;4.90;4.70;;;13.20;69.30;;;;;;4977562;28;20419;-80
2021/11/09 14:22:09;;;;;;;12.80;5.95;;;13.20;69.30;;;;;;4975942;28;20038;-81
2021/11/09 14:24:35;;;;;;;5.90;5.50;;;13.20;69.20;;;;;;4972883;28;20039;-81
2021/11/09 14:27:07;;;;;;;4.93;4.72;;;13.20;69.20;;;;;;4989161;28;20364;-81
2021/11/09 14:29:36;;;;;;;6.00;5.60;;;13.20;69.30;;;;;;4974587;28;20046;-81
2021/11/09 14:32:14;;;;;;;4.75;4.50;;;13.20;69.30;;;;;;4965915;28;20031;-81
2021/11/09 14:35:01;;;;;;;12.82;5.45;;;13.20;69.30;;;;;;4969180;28;20045;-81
2021/11/09 14:37:31;;;;;;;4.63;4.43;;;13.20;69.20;;;;;;4976758;28;20035;-81
2021/11/09 14:40:04;;;;;;;5.03;4.72;;;13.20;69.20;;;;;;4975518;28;20409;-81
2021/11/09 14:42:47;;;;;;;4.70;4.50;;;13.10;69.20;;;;;;4974365;28;20034;-81
2021/11/09 14:45:21;;;;;;;4.85;4.65;;;13.10;69.20;;;;;;4985286;28;20360;-81
2021/11/09 14:47:54;;;;;;;4.78;4.57;;;13.10;69.20;;;;;;4962268;28;20503;-81
2021/11/09 14:50:49;;;;;;;4.97;4.75;;;13.20;69.20;;;;;;4978423;28;20042;-81
2021/11/09 14:53:20;;;;;;;4.72;4.53;;;13.20;69.20;;;;;;4979867;28;20042;-82
2021/11/09 14:55:52;;;;;;;4.80;4.60;;;13.20;69.20;;;;;;4982803;28;20404;-81
2021/11/09 14:58:31;;;;;;;9.02;5.05;;;13.20;69.20;;;;;;4960657;28;20050;-81
2021/11/09 15:01:04;;;;;;;4.97;4.78;;;13.20;69.20;;;;;;4976400;28;20037;-81
2021/11/09 15:03:35;;;;;;;5.50;5.20;;;13.20;69.20;;;;;;4957909;28;20511;-80
2021/11/09 15:06:09;;;;;;;5.00;4.78;;;13.20;69.20;;;;;;4977127;28;20050;-80
2021/11/09 15:08:49;;;;;;;5.38;5.07;;;13.20;69.10;;;;;;4976320;28;20043;-80
2021/11/09 15:11:27;;;;;;;5.10;4.85;;;13.20;69.10;;;;;;4977336;28;20054;-81
2021/11/09 15:27:59;;;;;;;5.88;5.57;;;13.10;69.00;;;;;;4950987;28;20496;-81
2021/11/09 15:30:34;;;;;;;5.30;5.00;;;13.00;69.00;;;;;;4932673;28;20043;-81
2021/11/09 15:33:02;;;;;;;4.95;4.75;;;13.10;69.00;;;;;;4924623;29;20046;-86
2021/11/09 15:35:43;;;;;;;5.65;5.25;;;13.00;69.00;;;;;;4923698;29;20044;-85
2021/11/09 15:38:09;;;;;;;5.90;5.22;;;13.00;68.90;;;;;;4910246;29;20421;-82
2021/11/09 15:40:35;;;;;;;5.72;5.32;;;13.00;68.90;;;;;;4938366;29;20040;-85
2021/11/09 15:43:03;;;;;;;5.18;4.88;;;13.00;68.90;;;;;;4941189;29;20048;-86
2021/11/09 15:45:29;;;;;;;5.05;4.85;;;12.90;68.80;;;;;;4945051;28;20501;-83
2021/11/09 15:47:55;;;;;;;5.68;5.38;;;12.90;68.80;;;;;;4928983;29;20492;-84
2021/11/09 15:50:21;;;;;;;5.20;5.00;;;12.90;68.90;;;;;;4931354;29;20055;-82
2021/11/09 15:52:48;;;;;;;6.10;5.60;;;12.90;68.90;;;;;;4925941;29;20040;-82
2021/11/09 15:55:14;;;;;;;5.25;5.05;;;12.80;68.90;;;;;;4936233;28;20504;-81